sensor_id;sensor_type;location;lat;lon;timestamp;pressure;altitude;pressure_sealevel;temperature;humidity
8320;BME280;4197;42.130;24.746;2022-07-18T00:00:20;99941.53;;;23.18;35.62
8320;BME280;4197;42.130;24.746;2022-07-18T00:02:48;99950.97;;;23.20;35.40
8320;BME280;4197;42.130;24.746;2022-07-18T00:05:16;99946.00;;;23.11;35.55
8320;BME280;4197;42.130;24.746;2022-07-18T00:07:44;99951.97;;;23.10;35.79
8320;BME280;4197;42.130;24.746;2022-07-18T00:10:13;99954.72;;;23.10;35.77
8320;BME280;4197;42.130;24.746;2022-07-18T00:12:41;99966.28;;;23.05;35.56
8320;BME280;4197;42.130;24.746;2022-07-18T00:15:10;99955.81;;;22.96;35.14
8320;BME280;4197;42.130;24.746;2022-07-18T00:17:39;99965.22;;;22.99;34.76
8320;BME280;4197;42.130;24.746;2022-07-18T00:20:10;99955.81;;;22.96;34.69
8320;BME280;4197;42.130;24.746;2022-07-18T00:22:38;99964.44;;;22.78;35.01
8320;BME280;4197;42.130;24.746;2022-07-18T00:25:07;99962.66;;;22.68;35.14
8320;BME280;4197;42.130;24.746;2022-07-18T00:27:35;99965.47;;;22.64;34.82
8320;BME280;4197;42.130;24.746;2022-07-18T00:30:04;99969.69;;;22.73;33.94
8320;BME280;4197;42.130;24.746;2022-07-18T00:32:33;99961.38;;;22.73;33.48
8320;BME280;4197;42.130;24.746;2022-07-18T00:35:03;99959.50;;;22.66;33.56
8320;BME280;4197;42.130;24.746;2022-07-18T00:37:31;99961.03;;;22.70;32.39
8320;BME280;4197;42.130;24.746;2022-07-18T00:39:59;99963.91;;;22.63;32.62
8320;BME280;4197;42.130;24.746;2022-07-18T00:42:27;99958.44;;;22.60;32.08
8320;BME280;4197;42.130;24.746;2022-07-18T00:44:56;99965.31;;;22.52;32.30
8320;BME280;4197;42.130;24.746;2022-07-18T00:47:24;99969.34;;;22.47;32.10
8320;BME280;4197;42.130;24.746;2022-07-18T00:49:52;99961.19;;;22.40;32.23
8320;BME280;4197;42.130;24.746;2022-07-18T00:52:22;99967.50;;;22.40;31.93
8320;BME280;4197;42.130;24.746;2022-07-18T00:54:50;99964.44;;;22.35;32.06
8320;BME280;4197;42.130;24.746;2022-07-18T00:57:18;99972.00;;;22.31;31.90
8320;BME280;4197;42.130;24.746;2022-07-18T00:59:46;99960.31;;;22.23;31.85
8320;BME280;4197;42.130;24.746;2022-07-18T01:02:33;99973.78;;;22.17;32.00
8320;BME280;4197;42.130;24.746;2022-07-18T01:05:02;99965.31;;;22.04;32.14
8320;BME280;4197;42.130;24.746;2022-07-18T01:07:31;99974.06;;;21.99;31.99
8320;BME280;4197;42.130;24.746;2022-07-18T01:09:59;99971.22;;;22.03;31.87
8320;BME280;4197;42.130;24.746;2022-07-18T01:12:28;99977.59;;;22.00;32.28
8320;BME280;4197;42.130;24.746;2022-07-18T01:14:56;99976.44;;;21.97;31.93
8320;BME280;4197;42.130;24.746;2022-07-18T01:17:25;99977.41;;;21.87;32.50
8320;BME280;4197;42.130;24.746;2022-07-18T01:20:00;99971.06;;;21.90;32.19
8320;BME280;4197;42.130;24.746;2022-07-18T01:22:30;99974.75;;;21.80;32.24
8320;BME280;4197;42.130;24.746;2022-07-18T01:24:58;99971.94;;;21.83;32.29
8320;BME280;4197;42.130;24.746;2022-07-18T01:27:27;99974.22;;;21.89;32.12
8320;BME280;4197;42.130;24.746;2022-07-18T01:29:55;99965.22;;;21.85;31.98
8320;BME280;4197;42.130;24.746;2022-07-18T01:32:23;99969.66;;;21.78;32.24
8320;BME280;4197;42.130;24.746;2022-07-18T01:34:51;99971.22;;;21.79;32.21
8320;BME280;4197;42.130;24.746;2022-07-18T01:37:20;99980.81;;;21.71;32.26
8320;BME280;4197;42.130;24.746;2022-07-18T01:39:49;99986.72;;;21.70;32.14
8320;BME280;4197;42.130;24.746;2022-07-18T01:42:18;99981.63;;;21.68;32.46
8320;BME280;4197;42.130;24.746;2022-07-18T01:44:46;99976.19;;;21.65;32.85
8320;BME280;4197;42.130;24.746;2022-07-18T01:47:14;99968.38;;;21.56;33.11
8320;BME280;4197;42.130;24.746;2022-07-18T01:49:42;99976.66;;;21.56;33.28
8320;BME280;4197;42.130;24.746;2022-07-18T01:52:11;99981.41;;;21.55;33.64
8320;BME280;4197;42.130;24.746;2022-07-18T01:54:39;99978.72;;;21.52;33.84
8320;BME280;4197;42.130;24.746;2022-07-18T01:57:08;99982.69;;;21.51;33.91
8320;BME280;4197;42.130;24.746;2022-07-18T01:59:37;99986.72;;;21.43;34.07
8320;BME280;4197;42.130;24.746;2022-07-18T02:02:05;99983.22;;;21.38;34.13
8320;BME280;4197;42.130;24.746;2022-07-18T02:04:33;99986.41;;;21.37;34.18
8320;BME280;4197;42.130;24.746;2022-07-18T02:07:19;99981.00;;;21.26;34.45
8320;BME280;4197;42.130;24.746;2022-07-18T02:09:48;99979.84;;;21.24;34.37
8320;BME280;4197;42.130;24.746;2022-07-18T02:12:18;99992.88;;;21.20;34.83
8320;BME280;4197;42.130;24.746;2022-07-18T02:14:46;99993.38;;;21.14;34.70
8320;BME280;4197;42.130;24.746;2022-07-18T02:17:14;99990.88;;;21.24;34.84
8320;BME280;4197;42.130;24.746;2022-07-18T02:19:43;99998.81;;;21.18;35.08
8320;BME280;4197;42.130;24.746;2022-07-18T02:22:11;99994.13;;;21.15;35.20
8320;BME280;4197;42.130;24.746;2022-07-18T02:24:39;99998.88;;;21.14;35.41
8320;BME280;4197;42.130;24.746;2022-07-18T02:27:08;100003.59;;;21.14;35.51
8320;BME280;4197;42.130;24.746;2022-07-18T02:29:38;100004.41;;;21.11;35.74
8320;BME280;4197;42.130;24.746;2022-07-18T02:32:06;100005.25;;;21.08;35.69
8320;BME280;4197;42.130;24.746;2022-07-18T02:34:35;100003.75;;;21.00;36.33
8320;BME280;4197;42.130;24.746;2022-07-18T02:37:03;100013.13;;;21.06;36.17
8320;BME280;4197;42.130;24.746;2022-07-18T02:39:31;100004.13;;;21.02;36.46
8320;BME280;4197;42.130;24.746;2022-07-18T02:42:00;100004.53;;;21.00;36.77
8320;BME280;4197;42.130;24.746;2022-07-18T02:44:28;100004.63;;;20.93;36.76
8320;BME280;4197;42.130;24.746;2022-07-18T02:46:58;100007.06;;;20.84;36.96
8320;BME280;4197;42.130;24.746;2022-07-18T02:49:26;100020.00;;;20.90;36.77
8320;BME280;4197;42.130;24.746;2022-07-18T02:51:55;100015.56;;;21.00;36.88
8320;BME280;4197;42.130;24.746;2022-07-18T02:54:25;100012.47;;;20.94;37.20
8320;BME280;4197;42.130;24.746;2022-07-18T02:56:53;100020.41;;;20.92;37.16
8320;BME280;4197;42.130;24.746;2022-07-18T02:59:22;100018.09;;;20.87;37.03
8320;BME280;4197;42.130;24.746;2022-07-18T03:01:50;100026.75;;;20.86;37.01
8320;BME280;4197;42.130;24.746;2022-07-18T03:04:20;100018.09;;;20.84;37.07
8320;BME280;4197;42.130;24.746;2022-07-18T03:06:49;100023.66;;;20.80;37.07
8320;BME280;4197;42.130;24.746;2022-07-18T03:09:18;100019.72;;;20.81;36.92
8320;BME280;4197;42.130;24.746;2022-07-18T03:11:47;100018.56;;;20.79;37.08
8320;BME280;4197;42.130;24.746;2022-07-18T03:14:15;100015.00;;;20.78;37.34
8320;BME280;4197;42.130;24.746;2022-07-18T03:16:44;100016.50;;;20.86;36.86
8320;BME280;4197;42.130;24.746;2022-07-18T03:19:12;100025.09;;;20.92;36.58
8320;BME280;4197;42.130;24.746;2022-07-18T03:21:42;100021.91;;;20.97;36.08
8320;BME280;4197;42.130;24.746;2022-07-18T03:24:11;100022.16;;;21.10;35.95
8320;BME280;4197;42.130;24.746;2022-07-18T03:26:41;100027.47;;;21.28;35.30
8320;BME280;4197;42.130;24.746;2022-07-18T03:29:10;100025.75;;;21.41;35.17
8320;BME280;4197;42.130;24.746;2022-07-18T03:31:38;100019.00;;;21.46;35.25
8320;BME280;4197;42.130;24.746;2022-07-18T03:34:06;100022.72;;;21.63;34.66
8320;BME280;4197;42.130;24.746;2022-07-18T03:36:36;100021.81;;;21.69;34.13
8320;BME280;4197;42.130;24.746;2022-07-18T03:39:06;100016.91;;;21.84;34.23
8320;BME280;4197;42.130;24.746;2022-07-18T03:41:35;100022.78;;;21.86;33.72
8320;BME280;4197;42.130;24.746;2022-07-18T03:44:03;100023.13;;;21.88;33.64
8320;BME280;4197;42.130;24.746;2022-07-18T03:46:32;100022.88;;;22.06;32.95
8320;BME280;4197;42.130;24.746;2022-07-18T03:49:01;100027.84;;;22.18;32.61
8320;BME280;4197;42.130;24.746;2022-07-18T03:51:31;100028.03;;;22.31;32.02
8320;BME280;4197;42.130;24.746;2022-07-18T03:54:00;100028.22;;;22.44;31.92
8320;BME280;4197;42.130;24.746;2022-07-18T03:56:29;100029.25;;;22.54;32.06
8320;BME280;4197;42.130;24.746;2022-07-18T03:58:58;100027.44;;;22.67;31.73
8320;BME280;4197;42.130;24.746;2022-07-18T04:01:26;100032.41;;;22.76;31.30
8320;BME280;4197;42.130;24.746;2022-07-18T04:03:54;100033.47;;;22.82;31.37
8320;BME280;4197;42.130;24.746;2022-07-18T04:06:23;100038.38;;;22.94;31.13
8320;BME280;4197;42.130;24.746;2022-07-18T04:08:51;100042.09;;;23.07;30.62
8320;BME280;4197;42.130;24.746;2022-07-18T04:11:19;100049.44;;;23.18;30.55
8320;BME280;4197;42.130;24.746;2022-07-18T04:13:53;100054.47;;;23.23;30.61
8320;BME280;4197;42.130;24.746;2022-07-18T04:16:22;100042.38;;;23.33;30.26
8320;BME280;4197;42.130;24.746;2022-07-18T04:18:51;100047.59;;;23.31;29.99
8320;BME280;4197;42.130;24.746;2022-07-18T04:21:19;100046.78;;;23.30;29.84
8320;BME280;4197;42.130;24.746;2022-07-18T04:23:47;100047.78;;;23.40;29.86
8320;BME280;4197;42.130;24.746;2022-07-18T04:26:16;100049.03;;;23.55;29.33
8320;BME280;4197;42.130;24.746;2022-07-18T04:28:44;100044.56;;;23.62;29.54
8320;BME280;4197;42.130;24.746;2022-07-18T04:31:14;100043.78;;;23.61;29.31
8320;BME280;4197;42.130;24.746;2022-07-18T04:33:42;100054.50;;;23.79;28.94
8320;BME280;4197;42.130;24.746;2022-07-18T04:36:10;100051.75;;;23.95;29.02
8320;BME280;4197;42.130;24.746;2022-07-18T04:38:39;100054.09;;;23.97;28.83
8320;BME280;4197;42.130;24.746;2022-07-18T04:41:07;100053.78;;;24.11;28.50
8320;BME280;4197;42.130;24.746;2022-07-18T04:43:35;100058.97;;;24.25;27.91
8320;BME280;4197;42.130;24.746;2022-07-18T04:46:03;100062.28;;;24.37;27.96
8320;BME280;4197;42.130;24.746;2022-07-18T04:48:33;100065.03;;;24.37;28.24
8320;BME280;4197;42.130;24.746;2022-07-18T04:51:03;100065.69;;;24.44;27.81
8320;BME280;4197;42.130;24.746;2022-07-18T04:53:31;100066.50;;;24.41;27.69
8320;BME280;4197;42.130;24.746;2022-07-18T04:55:59;100079.16;;;24.42;28.00
8320;BME280;4197;42.130;24.746;2022-07-18T04:58:27;100078.94;;;24.53;27.90
8320;BME280;4197;42.130;24.746;2022-07-18T05:00:56;100084.88;;;24.68;27.55
8320;BME280;4197;42.130;24.746;2022-07-18T05:03:24;100098.84;;;24.81;27.22
8320;BME280;4197;42.130;24.746;2022-07-18T05:05:54;100094.75;;;24.85;27.39
8320;BME280;4197;42.130;24.746;2022-07-18T05:08:22;100100.88;;;24.93;26.96
8320;BME280;4197;42.130;24.746;2022-07-18T05:10:50;100095.06;;;25.04;27.30
8320;BME280;4197;42.130;24.746;2022-07-18T05:13:18;100093.41;;;25.35;27.04
8320;BME280;4197;42.130;24.746;2022-07-18T05:15:46;100098.44;;;25.41;26.31
8320;BME280;4197;42.130;24.746;2022-07-18T05:18:14;100092.34;;;25.46;26.46
8320;BME280;4197;42.130;24.746;2022-07-18T05:20:43;100094.78;;;25.44;26.44
8320;BME280;4197;42.130;24.746;2022-07-18T05:23:14;100092.22;;;25.36;27.04
8320;BME280;4197;42.130;24.746;2022-07-18T05:25:43;100097.06;;;25.62;27.19
8320;BME280;4197;42.130;24.746;2022-07-18T05:28:11;100103.81;;;25.60;27.52
8320;BME280;4197;42.130;24.746;2022-07-18T05:30:40;100103.84;;;25.73;26.64
8320;BME280;4197;42.130;24.746;2022-07-18T05:33:08;100096.69;;;25.89;26.26
8320;BME280;4197;42.130;24.746;2022-07-18T05:35:37;100105.56;;;25.96;26.65
8320;BME280;4197;42.130;24.746;2022-07-18T05:38:05;100096.56;;;25.92;26.96
8320;BME280;4197;42.130;24.746;2022-07-18T05:40:35;100113.50;;;26.11;26.60
8320;BME280;4197;42.130;24.746;2022-07-18T05:43:03;100112.34;;;25.95;26.55
8320;BME280;4197;42.130;24.746;2022-07-18T05:45:32;100105.19;;;25.81;26.34
8320;BME280;4197;42.130;24.746;2022-07-18T05:48:01;100105.59;;;26.09;26.29
8320;BME280;4197;42.130;24.746;2022-07-18T05:50:29;100097.91;;;26.13;26.02
8320;BME280;4197;42.130;24.746;2022-07-18T05:52:57;100103.91;;;26.12;26.04
8320;BME280;4197;42.130;24.746;2022-07-18T05:55:26;100096.91;;;26.07;26.07
8320;BME280;4197;42.130;24.746;2022-07-18T05:57:56;100088.91;;;26.09;26.30
8320;BME280;4197;42.130;24.746;2022-07-18T06:00:24;100085.91;;;26.03;26.53
8320;BME280;4197;42.130;24.746;2022-07-18T06:02:52;100087.78;;;26.19;25.80
8320;BME280;4197;42.130;24.746;2022-07-18T06:05:21;100082.03;;;26.14;26.23
8320;BME280;4197;42.130;24.746;2022-07-18T06:07:52;100075.34;;;25.86;26.31
8320;BME280;4197;42.130;24.746;2022-07-18T06:10:22;100069.78;;;26.11;26.38
8320;BME280;4197;42.130;24.746;2022-07-18T06:12:51;100073.22;;;26.15;26.66
8320;BME280;4197;42.130;24.746;2022-07-18T06:15:20;100069.56;;;26.06;27.10
8320;BME280;4197;42.130;24.746;2022-07-18T06:17:49;100066.94;;;25.60;27.13
8320;BME280;4197;42.130;24.746;2022-07-18T06:20:17;100072.03;;;25.49;26.90
8320;BME280;4197;42.130;24.746;2022-07-18T06:22:46;100071.56;;;25.37;27.48
8320;BME280;4197;42.130;24.746;2022-07-18T06:25:14;100068.66;;;25.41;27.22
8320;BME280;4197;42.130;24.746;2022-07-18T06:27:43;100075.22;;;25.34;26.91
8320;BME280;4197;42.130;24.746;2022-07-18T06:30:11;100077.84;;;25.25;27.48
8320;BME280;4197;42.130;24.746;2022-07-18T06:32:41;100076.88;;;25.32;27.68
8320;BME280;4197;42.130;24.746;2022-07-18T06:35:09;100070.78;;;25.37;27.38
8320;BME280;4197;42.130;24.746;2022-07-18T06:37:38;100078.53;;;25.29;27.89
8320;BME280;4197;42.130;24.746;2022-07-18T06:40:07;100079.66;;;25.32;28.37
8320;BME280;4197;42.130;24.746;2022-07-18T06:42:36;100074.84;;;25.20;27.34
8320;BME280;4197;42.130;24.746;2022-07-18T06:45:06;100081.84;;;25.24;27.64
8320;BME280;4197;42.130;24.746;2022-07-18T06:47:41;100078.75;;;25.35;28.10
8320;BME280;4197;42.130;24.746;2022-07-18T06:50:10;100078.53;;;25.29;28.13
8320;BME280;4197;42.130;24.746;2022-07-18T06:52:39;100082.22;;;25.39;27.87
8320;BME280;4197;42.130;24.746;2022-07-18T06:55:10;100080.59;;;25.54;28.02
8320;BME280;4197;42.130;24.746;2022-07-18T06:57:40;100078.38;;;25.62;27.58
8320;BME280;4197;42.130;24.746;2022-07-18T07:00:10;100088.25;;;25.50;26.98
8320;BME280;4197;42.130;24.746;2022-07-18T07:02:42;100078.34;;;25.49;26.47
8320;BME280;4197;42.130;24.746;2022-07-18T07:05:11;100075.16;;;25.51;26.74
8320;BME280;4197;42.130;24.746;2022-07-18T07:07:39;100077.72;;;25.58;27.01
8320;BME280;4197;42.130;24.746;2022-07-18T07:10:14;100074.72;;;25.65;28.08
8320;BME280;4197;42.130;24.746;2022-07-18T07:12:45;100078.31;;;25.78;27.81
8320;BME280;4197;42.130;24.746;2022-07-18T07:15:14;100073.88;;;25.81;27.00
8320;BME280;4197;42.130;24.746;2022-07-18T07:17:44;100082.75;;;25.76;27.25
8320;BME280;4197;42.130;24.746;2022-07-18T07:20:13;100075.88;;;25.80;27.33
8320;BME280;4197;42.130;24.746;2022-07-18T07:22:43;100069.09;;;25.81;27.34
8320;BME280;4197;42.130;24.746;2022-07-18T07:25:12;100075.78;;;25.84;27.17
8320;BME280;4197;42.130;24.746;2022-07-18T07:27:40;100079.44;;;25.94;26.75
8320;BME280;4197;42.130;24.746;2022-07-18T07:30:10;100070.00;;;26.04;26.84
8320;BME280;4197;42.130;24.746;2022-07-18T07:32:41;100067.56;;;26.06;26.52
8320;BME280;4197;42.130;24.746;2022-07-18T07:35:13;100078.56;;;26.10;26.80
8320;BME280;4197;42.130;24.746;2022-07-18T07:37:44;100071.22;;;26.16;26.15
8320;BME280;4197;42.130;24.746;2022-07-18T07:40:13;100076.69;;;26.19;26.32
8320;BME280;4197;42.130;24.746;2022-07-18T07:42:42;100066.13;;;26.14;27.08
8320;BME280;4197;42.130;24.746;2022-07-18T07:45:11;100067.66;;;26.28;26.14
8320;BME280;4197;42.130;24.746;2022-07-18T07:47:40;100069.97;;;26.30;26.17
8320;BME280;4197;42.130;24.746;2022-07-18T07:50:11;100069.31;;;26.38;25.78
8320;BME280;4197;42.130;24.746;2022-07-18T07:52:43;100065.75;;;26.38;26.29
8320;BME280;4197;42.130;24.746;2022-07-18T07:55:11;100066.09;;;26.40;25.82
8320;BME280;4197;42.130;24.746;2022-07-18T07:57:40;100074.88;;;26.13;26.27
8320;BME280;4197;42.130;24.746;2022-07-18T08:00:09;100068.88;;;26.27;26.37
8320;BME280;4197;42.130;24.746;2022-07-18T08:02:49;100067.41;;;26.35;25.80
8320;BME280;4197;42.130;24.746;2022-07-18T08:05:27;100062.31;;;26.34;25.48
8320;BME280;4197;42.130;24.746;2022-07-18T08:07:56;100067.63;;;26.54;26.71
8320;BME280;4197;42.130;24.746;2022-07-18T08:10:25;100071.94;;;26.67;25.32
8320;BME280;4197;42.130;24.746;2022-07-18T08:12:54;100066.63;;;26.60;25.97
8320;BME280;4197;42.130;24.746;2022-07-18T08:15:22;100077.59;;;26.77;25.30
8320;BME280;4197;42.130;24.746;2022-07-18T08:17:51;100068.78;;;26.91;25.19
8320;BME280;4197;42.130;24.746;2022-07-18T08:20:20;100075.50;;;27.03;25.25
8320;BME280;4197;42.130;24.746;2022-07-18T08:22:55;100074.69;;;26.80;24.30
8320;BME280;4197;42.130;24.746;2022-07-18T08:25:24;100074.41;;;26.65;25.45
8320;BME280;4197;42.130;24.746;2022-07-18T08:27:52;100070.28;;;26.70;24.93
8320;BME280;4197;42.130;24.746;2022-07-18T08:30:20;100064.13;;;26.75;24.40
8320;BME280;4197;42.130;24.746;2022-07-18T08:32:49;100069.91;;;26.81;24.84
8320;BME280;4197;42.130;24.746;2022-07-18T08:35:18;100065.53;;;26.92;24.88
8320;BME280;4197;42.130;24.746;2022-07-18T08:37:46;100073.53;;;26.90;24.39
8320;BME280;4197;42.130;24.746;2022-07-18T08:40:16;100064.47;;;26.99;24.30
8320;BME280;4197;42.130;24.746;2022-07-18T08:42:44;100074.16;;;26.73;23.48
8320;BME280;4197;42.130;24.746;2022-07-18T08:45:35;100070.69;;;26.81;23.95
8320;BME280;4197;42.130;24.746;2022-07-18T08:48:04;100073.03;;;26.83;23.64
8320;BME280;4197;42.130;24.746;2022-07-18T08:50:32;100074.41;;;26.65;23.86
8320;BME280;4197;42.130;24.746;2022-07-18T08:53:01;100070.41;;;26.66;24.06
8320;BME280;4197;42.130;24.746;2022-07-18T08:55:30;100068.59;;;26.73;23.61
8320;BME280;4197;42.130;24.746;2022-07-18T08:57:58;100075.94;;;27.01;23.59
8320;BME280;4197;42.130;24.746;2022-07-18T09:00:47;100061.94;;;27.27;23.94
8320;BME280;4197;42.130;24.746;2022-07-18T09:03:16;100059.31;;;27.54;24.76
8320;BME280;4197;42.130;24.746;2022-07-18T09:05:44;100062.28;;;27.82;24.27
8320;BME280;4197;42.130;24.746;2022-07-18T09:08:14;100062.22;;;28.04;23.24
8320;BME280;4197;42.130;24.746;2022-07-18T09:10:52;100063.97;;;28.20;23.85
8320;BME280;4197;42.130;24.746;2022-07-18T09:13:23;100063.97;;;28.29;23.72
8320;BME280;4197;42.130;24.746;2022-07-18T09:16:02;100067.69;;;28.26;23.39
8320;BME280;4197;42.130;24.746;2022-07-18T09:18:32;100069.97;;;28.09;23.37
8320;BME280;4197;42.130;24.746;2022-07-18T09:21:06;100067.59;;;27.67;23.73
8320;BME280;4197;42.130;24.746;2022-07-18T09:23:37;100069.59;;;27.35;24.22
8320;BME280;4197;42.130;24.746;2022-07-18T09:26:08;100065.13;;;27.38;24.53
8320;BME280;4197;42.130;24.746;2022-07-18T09:28:46;100065.69;;;27.55;25.33
8320;BME280;4197;42.130;24.746;2022-07-18T09:31:34;100068.00;;;27.56;24.02
8320;BME280;4197;42.130;24.746;2022-07-18T09:34:03;100078.38;;;27.34;23.32
8320;BME280;4197;42.130;24.746;2022-07-18T09:36:32;100072.88;;;27.21;23.85
8320;BME280;4197;42.130;24.746;2022-07-18T09:39:17;100060.88;;;27.55;24.46
8320;BME280;4197;42.130;24.746;2022-07-18T09:41:48;100059.38;;;27.86;24.49
8320;BME280;4197;42.130;24.746;2022-07-18T09:44:17;100063.97;;;28.20;24.01
8320;BME280;4197;42.130;24.746;2022-07-18T09:47:02;100058.72;;;28.31;23.62
8320;BME280;4197;42.130;24.746;2022-07-18T09:49:31;100058.28;;;28.33;24.21
8320;BME280;4197;42.130;24.746;2022-07-18T09:52:05;100061.06;;;28.33;23.54
8320;BME280;4197;42.130;24.746;2022-07-18T09:54:41;100055.00;;;28.34;23.99
8320;BME280;4197;42.130;24.746;2022-07-18T09:57:23;100058.03;;;28.67;24.33
8320;BME280;4197;42.130;24.746;2022-07-18T09:59:51;100051.69;;;28.76;24.24
8320;BME280;4197;42.130;24.746;2022-07-18T10:02:20;100053.25;;;28.86;23.86
8320;BME280;4197;42.130;24.746;2022-07-18T10:04:50;100049.22;;;29.06;23.07
8320;BME280;4197;42.130;24.746;2022-07-18T10:07:18;100052.34;;;29.08;23.83
8320;BME280;4197;42.130;24.746;2022-07-18T10:09:46;100056.97;;;28.74;21.94
8320;BME280;4197;42.130;24.746;2022-07-18T10:12:16;100049.13;;;28.32;23.61
8320;BME280;4197;42.130;24.746;2022-07-18T10:14:45;100042.47;;;28.39;22.44
8320;BME280;4197;42.130;24.746;2022-07-18T10:17:14;100038.97;;;28.48;22.32
8320;BME280;4197;42.130;24.746;2022-07-18T10:19:42;100039.88;;;28.44;23.31
8320;BME280;4197;42.130;24.746;2022-07-18T10:22:12;100040.13;;;28.37;22.82
8320;BME280;4197;42.130;24.746;2022-07-18T10:24:41;100042.41;;;28.02;22.83
8320;BME280;4197;42.130;24.746;2022-07-18T10:27:16;100026.16;;;27.78;23.25
8320;BME280;4197;42.130;24.746;2022-07-18T10:30:08;100027.53;;;28.05;24.62
8320;BME280;4197;42.130;24.746;2022-07-18T10:32:36;100025.09;;;28.25;24.02
8320;BME280;4197;42.130;24.746;2022-07-18T10:35:06;100027.28;;;28.21;23.74
8320;BME280;4197;42.130;24.746;2022-07-18T10:37:34;100020.91;;;28.21;24.31
8320;BME280;4197;42.130;24.746;2022-07-18T10:40:22;100023.16;;;28.44;25.03
8320;BME280;4197;42.130;24.746;2022-07-18T10:45:59;100024.38;;;28.71;24.79
8320;BME280;4197;42.130;24.746;2022-07-18T10:48:56;100023.94;;;28.91;24.44
8320;BME280;4197;42.130;24.746;2022-07-18T10:51:30;100017.59;;;28.72;25.15
8320;BME280;4197;42.130;24.746;2022-07-18T10:54:07;100019.72;;;28.96;25.11
8320;BME280;4197;42.130;24.746;2022-07-18T10:57:05;100014.13;;;29.23;24.48
8320;BME280;4197;42.130;24.746;2022-07-18T10:59:35;100013.19;;;29.26;24.82
8320;BME280;4197;42.130;24.746;2022-07-18T11:02:07;100016.03;;;29.08;25.48
8320;BME280;4197;42.130;24.746;2022-07-18T11:04:38;100011.97;;;29.27;25.54
8320;BME280;4197;42.130;24.746;2022-07-18T11:07:12;99996.56;;;29.41;25.22
8320;BME280;4197;42.130;24.746;2022-07-18T11:09:43;100002.03;;;29.26;25.63
8320;BME280;4197;42.130;24.746;2022-07-18T11:12:22;99994.53;;;29.42;25.44
8320;BME280;4197;42.130;24.746;2022-07-18T11:15:06;99987.34;;;29.68;25.03
8320;BME280;4197;42.130;24.746;2022-07-18T11:17:58;99989.91;;;29.81;24.89
8320;BME280;4197;42.130;24.746;2022-07-18T11:20:37;99983.16;;;29.97;24.78
8320;BME280;4197;42.130;24.746;2022-07-18T11:23:18;99988.03;;;30.11;23.83
8320;BME280;4197;42.130;24.746;2022-07-18T11:25:47;99977.72;;;30.17;24.43
8320;BME280;4197;42.130;24.746;2022-07-18T11:28:26;99972.66;;;30.07;24.29
8320;BME280;4197;42.130;24.746;2022-07-18T11:31:00;99978.09;;;29.44;24.00
8320;BME280;4197;42.130;24.746;2022-07-18T11:33:32;99975.22;;;29.20;24.81
8320;BME280;4197;42.130;24.746;2022-07-18T11:36:05;99978.25;;;29.40;24.52
8320;BME280;4197;42.130;24.746;2022-07-18T11:38:36;99979.59;;;29.54;24.83
8320;BME280;4197;42.130;24.746;2022-07-18T11:41:06;99970.63;;;29.50;23.81
8320;BME280;4197;42.130;24.746;2022-07-18T11:43:34;99970.38;;;29.29;24.31
8320;BME280;4197;42.130;24.746;2022-07-18T11:46:04;99968.31;;;29.39;24.27
8320;BME280;4197;42.130;24.746;2022-07-18T11:48:43;99969.72;;;29.44;24.31
8320;BME280;4197;42.130;24.746;2022-07-18T11:51:14;99957.78;;;29.43;24.26
8320;BME280;4197;42.130;24.746;2022-07-18T11:53:42;99952.94;;;29.44;24.70
8320;BME280;4197;42.130;24.746;2022-07-18T11:56:11;99953.66;;;29.63;24.39
8320;BME280;4197;42.130;24.746;2022-07-18T11:58:41;99942.78;;;29.65;24.87
8320;BME280;4197;42.130;24.746;2022-07-18T12:01:11;99946.34;;;29.65;25.45
8320;BME280;4197;42.130;24.746;2022-07-18T12:03:43;99949.88;;;29.75;25.15
8320;BME280;4197;42.130;24.746;2022-07-18T12:06:12;99939.22;;;29.64;25.16
8320;BME280;4197;42.130;24.746;2022-07-18T12:08:43;99937.84;;;29.50;25.60
8320;BME280;4197;42.130;24.746;2022-07-18T12:11:15;99937.59;;;29.39;25.71
8320;BME280;4197;42.130;24.746;2022-07-18T12:13:55;99935.56;;;29.40;25.47
8320;BME280;4197;42.130;24.746;2022-07-18T12:16:34;99937.28;;;29.46;24.66
8320;BME280;4197;42.130;24.746;2022-07-18T12:19:06;99935.81;;;29.60;24.02
8320;BME280;4197;42.130;24.746;2022-07-18T12:21:49;99928.03;;;29.64;24.63
8320;BME280;4197;42.130;24.746;2022-07-18T12:24:30;99927.16;;;29.49;24.89
8320;BME280;4197;42.130;24.746;2022-07-18T12:27:17;99928.19;;;29.61;25.93
8320;BME280;4197;42.130;24.746;2022-07-18T12:29:59;99918.44;;;29.56;25.54
8320;BME280;4197;42.130;24.746;2022-07-18T12:32:36;99922.47;;;29.55;25.60
8320;BME280;4197;42.130;24.746;2022-07-18T12:35:08;99921.81;;;29.69;26.51
8320;BME280;4197;42.130;24.746;2022-07-18T12:37:37;99922.94;;;29.87;25.35
8320;BME280;4197;42.130;24.746;2022-07-18T12:40:12;99913.72;;;29.71;25.61
8320;BME280;4197;42.130;24.746;2022-07-18T12:43:03;99907.19;;;29.74;26.12
8320;BME280;4197;42.130;24.746;2022-07-18T12:45:34;99915.44;;;30.17;25.96
8320;BME280;4197;42.130;24.746;2022-07-18T12:48:03;99909.38;;;30.18;26.32
8320;BME280;4197;42.130;24.746;2022-07-18T12:50:33;99899.81;;;30.10;26.51
8320;BME280;4197;42.130;24.746;2022-07-18T12:53:02;99908.13;;;29.71;27.10
8320;BME280;4197;42.130;24.746;2022-07-18T12:55:30;99902.56;;;29.62;26.31
8320;BME280;4197;42.130;24.746;2022-07-18T12:57:59;99902.31;;;29.51;26.82
8320;BME280;4197;42.130;24.746;2022-07-18T13:00:28;99906.16;;;29.53;27.81
8320;BME280;4197;42.130;24.746;2022-07-18T13:02:57;99905.50;;;29.68;27.58
8320;BME280;4197;42.130;24.746;2022-07-18T13:05:28;99891.09;;;29.60;27.39
8320;BME280;4197;42.130;24.746;2022-07-18T13:07:58;99886.84;;;29.74;28.09
8320;BME280;4197;42.130;24.746;2022-07-18T13:10:26;99893.31;;;30.04;28.13
8320;BME280;4197;42.130;24.746;2022-07-18T13:12:54;99891.09;;;30.32;27.81
8320;BME280;4197;42.130;24.746;2022-07-18T13:15:22;99894.78;;;30.38;27.45
8320;BME280;4197;42.130;24.746;2022-07-18T13:17:51;99887.84;;;30.49;27.56
8320;BME280;4197;42.130;24.746;2022-07-18T13:20:19;99881.34;;;30.28;26.77
8320;BME280;4197;42.130;24.746;2022-07-18T13:22:47;99877.53;;;30.16;27.62
8320;BME280;4197;42.130;24.746;2022-07-18T13:25:21;99882.22;;;30.34;27.11